sensor_id;sensor_type;location;lat;lon;timestamp;P1;durP1;ratioP1;P2;durP2;ratioP2
73333;SDS011;61561;43.538;-5.670;2022-08-27T00:03:57;11.15;;;1.23;;
73333;SDS011;61561;43.538;-5.670;2022-08-27T00:06:25;11.85;;;1.10;;
73333;SDS011;61561;43.538;-5.670;2022-08-27T00:08:52;9.07;;;1.57;;
73333;SDS011;61561;43.538;-5.670;2022-08-27T00:11:19;9.30;;;1.00;;
73333;SDS011;61561;43.538;-5.670;2022-08-27T00:13:52;9.48;;;1.00;;
73333;SDS011;61561;43.538;-5.670;2022-08-27T00:16:21;12.43;;;1.40;;
73333;SDS011;61561;43.538;-5.670;2022-08-27T00:18:57;9.20;;;1.27;;
73333;SDS011;61561;43.538;-5.670;2022-08-27T00:21:27;8.53;;;1.00;;
73333;SDS011;61561;43.538;-5.670;2022-08-27T00:23:53;8.50;;;0.90;;
73333;SDS011;61561;43.538;-5.670;2022-08-27T00:26:25;9.63;;;1.10;;
73333;SDS011;61561;43.538;-5.670;2022-08-27T00:30:10;8.93;;;1.10;;
73333;SDS011;61561;43.538;-5.670;2022-08-27T00:32:54;9.48;;;1.35;;
73333;SDS011;61561;43.538;-5.670;2022-08-27T00:35:24;13.15;;;1.55;;
73333;SDS011;61561;43.538;-5.670;2022-08-27T00:37:53;10.02;;;0.95;;
73333;SDS011;61561;43.538;-5.670;2022-08-27T00:40:19;10.20;;;0.87;;
73333;SDS011;61561;43.538;-5.670;2022-08-27T00:42:48;10.23;;;1.55;;
73333;SDS011;61561;43.538;-5.670;2022-08-27T00:45:15;10.32;;;1.48;;
73333;SDS011;61561;43.538;-5.670;2022-08-27T00:47:46;11.15;;;1.25;;
73333;SDS011;61561;43.538;-5.670;2022-08-27T01:03:10;11.60;;;1.33;;
73333;SDS011;61561;43.538;-5.670;2022-08-27T01:05:38;12.03;;;1.43;;
73333;SDS011;61561;43.538;-5.670;2022-08-27T01:08:07;12.43;;;1.38;;
73333;SDS011;61561;43.538;-5.670;2022-08-27T01:13:26;6.88;;;1.27;;
73333;SDS011;61561;43.538;-5.670;2022-08-27T01:15:55;8.00;;;0.75;;
73333;SDS011;61561;43.538;-5.670;2022-08-27T01:18:33;10.93;;;1.60;;
73333;SDS011;61561;43.538;-5.670;2022-08-27T01:23:51;7.05;;;0.90;;
73333;SDS011;61561;43.538;-5.670;2022-08-27T01:26:23;7.18;;;0.82;;
73333;SDS011;61561;43.538;-5.670;2022-08-27T01:28:51;13.02;;;1.50;;
73333;SDS011;61561;43.538;-5.670;2022-08-27T01:31:17;8.30;;;1.33;;
73333;SDS011;61561;43.538;-5.670;2022-08-27T01:33:53;7.05;;;0.90;;
73333;SDS011;61561;43.538;-5.670;2022-08-27T01:38:57;9.07;;;0.83;;
73333;SDS011;61561;43.538;-5.670;2022-08-27T01:44:13;8.13;;;0.95;;
73333;SDS011;61561;43.538;-5.670;2022-08-27T01:46:39;10.17;;;1.43;;
73333;SDS011;61561;43.538;-5.670;2022-08-27T01:49:05;12.50;;;1.42;;
73333;SDS011;61561;43.538;-5.670;2022-08-27T01:51:31;9.98;;;1.35;;
73333;SDS011;61561;43.538;-5.670;2022-08-27T01:53:58;11.77;;;1.10;;
73333;SDS011;61561;43.538;-5.670;2022-08-27T01:56:36;7.82;;;0.82;;
73333;SDS011;61561;43.538;-5.670;2022-08-27T01:59:02;9.30;;;1.00;;
73333;SDS011;61561;43.538;-5.670;2022-08-27T02:01:30;9.77;;;1.05;;
73333;SDS011;61561;43.538;-5.670;2022-08-27T02:03:56;8.97;;;0.63;;
73333;SDS011;61561;43.538;-5.670;2022-08-27T02:06:22;7.32;;;0.80;;
73333;SDS011;61561;43.538;-5.670;2022-08-27T02:08:47;6.75;;;0.63;;
73333;SDS011;61561;43.538;-5.670;2022-08-27T02:11:16;8.50;;;0.77;;
73333;SDS011;61561;43.538;-5.670;2022-08-27T02:13:42;8.18;;;0.73;;
73333;SDS011;61561;43.538;-5.670;2022-08-27T02:16:08;8.25;;;0.93;;
73333;SDS011;61561;43.538;-5.670;2022-08-27T02:18:34;7.83;;;0.80;;
73333;SDS011;61561;43.538;-5.670;2022-08-27T02:21:02;6.50;;;0.60;;
73333;SDS011;61561;43.538;-5.670;2022-08-27T02:23:34;6.97;;;0.93;;
73333;SDS011;61561;43.538;-5.670;2022-08-27T02:26:00;7.50;;;1.00;;
73333;SDS011;61561;43.538;-5.670;2022-08-27T02:28:26;6.67;;;0.70;;
73333;SDS011;61561;43.538;-5.670;2022-08-27T02:30:52;8.93;;;0.85;;
73333;SDS011;61561;43.538;-5.670;2022-08-27T02:33:19;5.05;;;0.50;;
73333;SDS011;61561;43.538;-5.670;2022-08-27T02:35:45;6.17;;;0.77;;
73333;SDS011;61561;43.538;-5.670;2022-08-27T02:41:33;5.80;;;0.90;;
73333;SDS011;61561;43.538;-5.670;2022-08-27T02:44:00;9.70;;;1.00;;
73333;SDS011;61561;43.538;-5.670;2022-08-27T02:46:27;6.57;;;0.90;;
73333;SDS011;61561;43.538;-5.670;2022-08-27T02:48:54;9.07;;;0.90;;
73333;SDS011;61561;43.538;-5.670;2022-08-27T02:51:20;10.13;;;0.85;;
73333;SDS011;61561;43.538;-5.670;2022-08-27T02:53:46;10.73;;;1.10;;
73333;SDS011;61561;43.538;-5.670;2022-08-27T02:56:17;6.57;;;0.93;;
73333;SDS011;61561;43.538;-5.670;2022-08-27T02:58:43;9.73;;;0.80;;
73333;SDS011;61561;43.538;-5.670;2022-08-27T03:01:09;7.45;;;0.65;;
73333;SDS011;61561;43.538;-5.670;2022-08-27T03:03:34;8.57;;;1.00;;
73333;SDS011;61561;43.538;-5.670;2022-08-27T03:06:00;7.13;;;0.60;;
73333;SDS011;61561;43.538;-5.670;2022-08-27T03:08:26;9.23;;;1.13;;
73333;SDS011;61561;43.538;-5.670;2022-08-27T03:10:53;7.53;;;0.70;;
73333;SDS011;61561;43.538;-5.670;2022-08-27T03:13:22;10.13;;;1.08;;
73333;SDS011;61561;43.538;-5.670;2022-08-27T03:15:50;9.88;;;0.82;;
73333;SDS011;61561;43.538;-5.670;2022-08-27T03:26:03;6.53;;;1.17;;
73333;SDS011;61561;43.538;-5.670;2022-08-27T03:28:34;8.07;;;1.00;;
73333;SDS011;61561;43.538;-5.670;2022-08-27T03:31:03;8.63;;;0.97;;
73333;SDS011;61561;43.538;-5.670;2022-08-27T03:33:31;6.72;;;0.68;;
73333;SDS011;61561;43.538;-5.670;2022-08-27T03:36:02;7.85;;;1.10;;
73333;SDS011;61561;43.538;-5.670;2022-08-27T03:41:04;9.73;;;1.20;;
73333;SDS011;61561;43.538;-5.670;2022-08-27T03:48:40;6.25;;;0.80;;
73333;SDS011;61561;43.538;-5.670;2022-08-27T03:51:08;7.03;;;0.47;;
73333;SDS011;61561;43.538;-5.670;2022-08-27T04:19:37;9.85;;;1.17;;
73333;SDS011;61561;43.538;-5.670;2022-08-27T04:22:04;8.25;;;0.93;;
73333;SDS011;61561;43.538;-5.670;2022-08-27T04:24:34;10.70;;;1.30;;
73333;SDS011;61561;43.538;-5.670;2022-08-27T04:27:02;7.87;;;0.90;;
73333;SDS011;61561;43.538;-5.670;2022-08-27T04:32:26;10.77;;;1.40;;
73333;SDS011;61561;43.538;-5.670;2022-08-27T04:34:56;7.60;;;0.93;;
73333;SDS011;61561;43.538;-5.670;2022-08-27T04:37:28;8.95;;;0.95;;
73333;SDS011;61561;43.538;-5.670;2022-08-27T04:39:58;7.27;;;0.93;;
73333;SDS011;61561;43.538;-5.670;2022-08-27T04:42:24;10.10;;;1.17;;
73333;SDS011;61561;43.538;-5.670;2022-08-27T04:44:50;9.57;;;1.27;;
73333;SDS011;61561;43.538;-5.670;2022-08-27T05:02:48;9.88;;;1.15;;
73333;SDS011;61561;43.538;-5.670;2022-08-27T05:05:14;10.20;;;0.60;;
73333;SDS011;61561;43.538;-5.670;2022-08-27T05:07:40;7.90;;;0.90;;
73333;SDS011;61561;43.538;-5.670;2022-08-27T05:10:06;8.13;;;1.10;;
73333;SDS011;61561;43.538;-5.670;2022-08-27T05:12:35;7.60;;;0.80;;
73333;SDS011;61561;43.538;-5.670;2022-08-27T05:15:02;6.97;;;0.77;;
73333;SDS011;61561;43.538;-5.670;2022-08-27T05:25:19;6.75;;;0.75;;
73333;SDS011;61561;43.538;-5.670;2022-08-27T05:27:46;10.83;;;1.13;;
73333;SDS011;61561;43.538;-5.670;2022-08-27T05:38:16;6.80;;;0.90;;
73333;SDS011;61561;43.538;-5.670;2022-08-27T05:40:45;5.57;;;0.80;;
73333;SDS011;61561;43.538;-5.670;2022-08-27T05:43:15;12.02;;;1.20;;
73333;SDS011;61561;43.538;-5.670;2022-08-27T05:45:44;8.80;;;1.00;;
73333;SDS011;61561;43.538;-5.670;2022-08-27T05:59:10;7.45;;;1.00;;
73333;SDS011;61561;43.538;-5.670;2022-08-27T06:01:54;7.68;;;1.15;;
73333;SDS011;61561;43.538;-5.670;2022-08-27T06:04:22;10.53;;;0.97;;
73333;SDS011;61561;43.538;-5.670;2022-08-27T06:06:49;5.68;;;0.68;;
73333;SDS011;61561;43.538;-5.670;2022-08-27T06:09:17;8.73;;;0.85;;
73333;SDS011;61561;43.538;-5.670;2022-08-27T06:11:52;6.47;;;0.90;;
73333;SDS011;61561;43.538;-5.670;2022-08-27T06:14:19;7.60;;;0.98;;
73333;SDS011;61561;43.538;-5.670;2022-08-27T06:16:50;9.83;;;1.07;;
73333;SDS011;61561;43.538;-5.670;2022-08-27T06:21:45;6.43;;;0.50;;
73333;SDS011;61561;43.538;-5.670;2022-08-27T06:24:15;8.18;;;1.10;;
73333;SDS011;61561;43.538;-5.670;2022-08-27T06:26:43;6.50;;;0.80;;
73333;SDS011;61561;43.538;-5.670;2022-08-27T06:29:23;6.87;;;0.60;;
73333;SDS011;61561;43.538;-5.670;2022-08-27T06:31:49;8.95;;;1.02;;
73333;SDS011;61561;43.538;-5.670;2022-08-27T06:34:23;8.13;;;1.10;;
73333;SDS011;61561;43.538;-5.670;2022-08-27T06:36:49;8.63;;;1.05;;
73333;SDS011;61561;43.538;-5.670;2022-08-27T06:39:15;7.63;;;1.13;;
73333;SDS011;61561;43.538;-5.670;2022-08-27T06:41:50;6.47;;;0.70;;
73333;SDS011;61561;43.538;-5.670;2022-08-27T06:44:16;5.10;;;0.93;;
73333;SDS011;61561;43.538;-5.670;2022-08-27T06:46:42;7.40;;;0.90;;
73333;SDS011;61561;43.538;-5.670;2022-08-27T06:49:08;6.33;;;0.80;;
73333;SDS011;61561;43.538;-5.670;2022-08-27T06:51:39;4.72;;;0.90;;
73333;SDS011;61561;43.538;-5.670;2022-08-27T06:54:10;5.85;;;0.63;;
73333;SDS011;61561;43.538;-5.670;2022-08-27T06:56:36;5.70;;;1.00;;
73333;SDS011;61561;43.538;-5.670;2022-08-27T06:59:11;8.60;;;0.95;;
73333;SDS011;61561;43.538;-5.670;2022-08-27T07:01:40;3.80;;;0.57;;
73333;SDS011;61561;43.538;-5.670;2022-08-27T07:04:12;6.88;;;0.70;;
73333;SDS011;61561;43.538;-5.670;2022-08-27T07:06:40;5.88;;;0.60;;
73333;SDS011;61561;43.538;-5.670;2022-08-27T07:09:06;6.30;;;0.73;;
73333;SDS011;61561;43.538;-5.670;2022-08-27T07:11:35;4.25;;;0.40;;
73333;SDS011;61561;43.538;-5.670;2022-08-27T07:14:02;7.27;;;0.77;;
73333;SDS011;61561;43.538;-5.670;2022-08-27T07:16:30;6.55;;;0.75;;
73333;SDS011;61561;43.538;-5.670;2022-08-27T07:52:33;6.27;;;0.73;;
73333;SDS011;61561;43.538;-5.670;2022-08-27T07:54:59;8.05;;;0.80;;
73333;SDS011;61561;43.538;-5.670;2022-08-27T08:18:23;8.40;;;1.00;;
73333;SDS011;61561;43.538;-5.670;2022-08-27T08:20:49;5.28;;;0.80;;
73333;SDS011;61561;43.538;-5.670;2022-08-27T08:23:18;4.97;;;0.63;;
73333;SDS011;61561;43.538;-5.670;2022-08-27T08:25:44;6.28;;;0.70;;
73333;SDS011;61561;43.538;-5.670;2022-08-27T08:28:11;5.70;;;0.93;;
73333;SDS011;61561;43.538;-5.670;2022-08-27T08:30:42;6.90;;;1.10;;
73333;SDS011;61561;43.538;-5.670;2022-08-27T09:45:45;5.35;;;1.00;;
73333;SDS011;61561;43.538;-5.670;2022-08-27T09:48:21;7.93;;;1.33;;
73333;SDS011;61561;43.538;-5.670;2022-08-27T09:50:51;8.68;;;1.27;;
73333;SDS011;61561;43.538;-5.670;2022-08-27T09:53:40;6.30;;;1.92;;
73333;SDS011;61561;43.538;-5.670;2022-08-27T09:59:24;7.57;;;1.58;;
73333;SDS011;61561;43.538;-5.670;2022-08-27T10:13:08;7.05;;;1.15;;
73333;SDS011;61561;43.538;-5.670;2022-08-27T10:15:53;7.63;;;1.70;;
73333;SDS011;61561;43.538;-5.670;2022-08-27T10:21:44;9.15;;;1.83;;
73333;SDS011;61561;43.538;-5.670;2022-08-27T10:38:37;10.38;;;1.27;;
73333;SDS011;61561;43.538;-5.670;2022-08-27T10:57:52;8.23;;;1.60;;
73333;SDS011;61561;43.538;-5.670;2022-08-27T11:23:56;8.17;;;1.60;;
73333;SDS011;61561;43.538;-5.670;2022-08-27T11:26:28;5.65;;;1.33;;
73333;SDS011;61561;43.538;-5.670;2022-08-27T11:29:00;8.20;;;1.73;;
73333;SDS011;61561;43.538;-5.670;2022-08-27T12:07:47;6.25;;;0.95;;
73333;SDS011;61561;43.538;-5.670;2022-08-27T12:10:30;6.55;;;1.10;;
73333;SDS011;61561;43.538;-5.670;2022-08-27T12:13:11;10.45;;;1.67;;
73333;SDS011;61561;43.538;-5.670;2022-08-27T12:15:59;9.10;;;1.57;;
73333;SDS011;61561;43.538;-5.670;2022-08-27T12:21:48;9.40;;;1.52;;
73333;SDS011;61561;43.538;-5.670;2022-08-27T12:29:57;8.73;;;1.43;;
73333;SDS011;61561;43.538;-5.670;2022-08-27T12:40:07;8.13;;;1.50;;
73333;SDS011;61561;43.538;-5.670;2022-08-27T12:46:07;7.03;;;1.70;;
73333;SDS011;61561;43.538;-5.670;2022-08-27T12:48:41;8.80;;;1.50;;
73333;SDS011;61561;43.538;-5.670;2022-08-27T12:51:22;8.07;;;1.90;;
73333;SDS011;61561;43.538;-5.670;2022-08-27T12:57:16;6.10;;;1.63;;
73333;SDS011;61561;43.538;-5.670;2022-08-27T13:00:15;7.53;;;1.63;;
73333;SDS011;61561;43.538;-5.670;2022-08-27T13:05:46;6.18;;;1.50;;
73333;SDS011;61561;43.538;-5.670;2022-08-27T13:08:18;7.25;;;1.40;;
73333;SDS011;61561;43.538;-5.670;2022-08-27T13:14:09;6.55;;;1.70;;
73333;SDS011;61561;43.538;-5.670;2022-08-27T13:16:48;9.27;;;2.08;;
73333;SDS011;61561;43.538;-5.670;2022-08-27T13:19:35;9.25;;;1.83;;
73333;SDS011;61561;43.538;-5.670;2022-08-27T13:24:45;10.50;;;2.00;;
73333;SDS011;61561;43.538;-5.670;2022-08-27T13:29:48;5.70;;;1.65;;
73333;SDS011;61561;43.538;-5.670;2022-08-27T13:32:15;6.30;;;1.27;;
73333;SDS011;61561;43.538;-5.670;2022-08-27T13:34:41;7.10;;;1.92;;
73333;SDS011;61561;43.538;-5.670;2022-08-27T13:37:20;6.90;;;1.73;;
73333;SDS011;61561;43.538;-5.670;2022-08-27T13:39:53;6.63;;;1.55;;
73333;SDS011;61561;43.538;-5.670;2022-08-27T13:42:26;9.68;;;1.70;;
73333;SDS011;61561;43.538;-5.670;2022-08-27T13:44:53;5.13;;;1.50;;
73333;SDS011;61561;43.538;-5.670;2022-08-27T13:47:25;6.17;;;1.43;;
73333;SDS011;61561;43.538;-5.670;2022-08-27T13:53:20;7.65;;;1.70;;
73333;SDS011;61561;43.538;-5.670;2022-08-27T13:59:31;7.55;;;2.38;;
73333;SDS011;61561;43.538;-5.670;2022-08-27T14:04:39;7.70;;;1.75;;
73333;SDS011;61561;43.538;-5.670;2022-08-27T14:09:48;7.65;;;2.17;;
73333;SDS011;61561;43.538;-5.670;2022-08-27T14:12:27;5.72;;;1.98;;
73333;SDS011;61561;43.538;-5.670;2022-08-27T14:14:56;8.33;;;2.50;;
73333;SDS011;61561;43.538;-5.670;2022-08-27T14:17:24;7.78;;;1.70;;
73333;SDS011;61561;43.538;-5.670;2022-08-27T14:20:02;7.32;;;1.90;;
73333;SDS011;61561;43.538;-5.670;2022-08-27T14:22:29;5.88;;;1.40;;
73333;SDS011;61561;43.538;-5.670;2022-08-27T14:24:56;6.73;;;2.10;;
73333;SDS011;61561;43.538;-5.670;2022-08-27T14:27:22;8.15;;;1.85;;
73333;SDS011;61561;43.538;-5.670;2022-08-27T14:32:22;7.03;;;2.00;;
73333;SDS011;61561;43.538;-5.670;2022-08-27T14:34:49;4.93;;;1.85;;
73333;SDS011;61561;43.538;-5.670;2022-08-27T14:37:15;7.55;;;1.88;;
73333;SDS011;61561;43.538;-5.670;2022-08-27T14:45:24;8.40;;;2.07;;
73333;SDS011;61561;43.538;-5.670;2022-08-27T14:47:51;6.28;;;1.65;;
73333;SDS011;61561;43.538;-5.670;2022-08-27T14:50:17;7.85;;;2.13;;
73333;SDS011;61561;43.538;-5.670;2022-08-27T14:56:06;5.00;;;1.60;;
73333;SDS011;61561;43.538;-5.670;2022-08-27T14:58:36;5.40;;;1.63;;
73333;SDS011;61561;43.538;-5.670;2022-08-27T15:03:41;9.07;;;2.00;;
73333;SDS011;61561;43.538;-5.670;2022-08-27T15:06:12;4.82;;;1.50;;
73333;SDS011;61561;43.538;-5.670;2022-08-27T15:08:38;7.32;;;2.08;;
73333;SDS011;61561;43.538;-5.670;2022-08-27T15:11:04;7.53;;;2.33;;
73333;SDS011;61561;43.538;-5.670;2022-08-27T15:13:41;7.78;;;1.65;;
73333;SDS011;61561;43.538;-5.670;2022-08-27T15:40:15;8.57;;;1.45;;
73333;SDS011;61561;43.538;-5.670;2022-08-27T15:45:20;5.65;;;1.38;;
73333;SDS011;61561;43.538;-5.670;2022-08-27T15:47:48;5.07;;;1.20;;
73333;SDS011;61561;43.538;-5.670;2022-08-27T15:50:13;5.85;;;1.20;;
73333;SDS011;61561;43.538;-5.670;2022-08-27T15:52:45;5.68;;;1.63;;
73333;SDS011;61561;43.538;-5.670;2022-08-27T15:55:18;6.45;;;1.45;;
73333;SDS011;61561;43.538;-5.670;2022-08-27T16:07:33;7.38;;;1.77;;
73333;SDS011;61561;43.538;-5.670;2022-08-27T16:09:59;5.30;;;0.95;;
73333;SDS011;61561;43.538;-5.670;2022-08-27T16:12:25;6.10;;;1.33;;
73333;SDS011;61561;43.538;-5.670;2022-08-27T16:14:51;5.67;;;1.53;;
73333;SDS011;61561;43.538;-5.670;2022-08-27T16:17:17;5.72;;;1.50;;
73333;SDS011;61561;43.538;-5.670;2022-08-27T16:19:45;5.38;;;1.23;;
73333;SDS011;61561;43.538;-5.670;2022-08-27T16:22:10;6.67;;;1.27;;
73333;SDS011;61561;43.538;-5.670;2022-08-27T16:30:16;6.28;;;0.90;;
73333;SDS011;61561;43.538;-5.670;2022-08-27T17:11:31;6.18;;;1.75;;
73333;SDS011;61561;43.538;-5.670;2022-08-27T17:14:00;10.73;;;1.75;;
73333;SDS011;61561;43.538;-5.670;2022-08-27T17:16:29;6.45;;;1.60;;
73333;SDS011;61561;43.538;-5.670;2022-08-27T17:21:34;7.22;;;2.05;;
73333;SDS011;61561;43.538;-5.670;2022-08-27T17:24:02;8.05;;;1.90;;
73333;SDS011;61561;43.538;-5.670;2022-08-27T17:26:29;6.75;;;1.75;;
73333;SDS011;61561;43.538;-5.670;2022-08-27T17:28:58;6.15;;;1.67;;
73333;SDS011;61561;43.538;-5.670;2022-08-27T17:31:43;5.67;;;1.87;;
73333;SDS011;61561;43.538;-5.670;2022-08-27T17:34:12;6.75;;;1.90;;
73333;SDS011;61561;43.538;-5.670;2022-08-27T17:36:44;7.55;;;1.83;;
73333;SDS011;61561;43.538;-5.670;2022-08-27T17:41:47;6.15;;;1.90;;
73333;SDS011;61561;43.538;-5.670;2022-08-27T17:44:33;6.07;;;2.20;;
73333;SDS011;61561;43.538;-5.670;2022-08-27T17:47:01;8.70;;;2.05;;
73333;SDS011;61561;43.538;-5.670;2022-08-27T17:49:29;6.78;;;1.98;;
73333;SDS011;61561;43.538;-5.670;2022-08-27T17:52:02;5.05;;;1.48;;
73333;SDS011;61561;43.538;-5.670;2022-08-27T17:54:39;5.70;;;2.10;;
73333;SDS011;61561;43.538;-5.670;2022-08-27T17:57:14;6.70;;;2.03;;
73333;SDS011;61561;43.538;-5.670;2022-08-27T17:59:49;7.38;;;1.65;;
73333;SDS011;61561;43.538;-5.670;2022-08-27T18:02:20;7.55;;;1.77;;
73333;SDS011;61561;43.538;-5.670;2022-08-27T18:07:44;11.25;;;2.08;;
73333;SDS011;61561;43.538;-5.670;2022-08-27T18:10:12;8.57;;;2.07;;
73333;SDS011;61561;43.538;-5.670;2022-08-27T18:12:44;6.45;;;1.92;;
73333;SDS011;61561;43.538;-5.670;2022-08-27T18:15:13;8.02;;;2.28;;
73333;SDS011;61561;43.538;-5.670;2022-08-27T18:17:46;7.00;;;1.90;;
73333;SDS011;61561;43.538;-5.670;2022-08-27T18:22:53;7.57;;;2.50;;
73333;SDS011;61561;43.538;-5.670;2022-08-27T18:25:25;9.77;;;2.72;;
73333;SDS011;61561;43.538;-5.670;2022-08-27T18:30:28;7.55;;;2.10;;
73333;SDS011;61561;43.538;-5.670;2022-08-27T18:32:57;6.28;;;1.80;;
73333;SDS011;61561;43.538;-5.670;2022-08-27T18:35:26;7.47;;;2.53;;
73333;SDS011;61561;43.538;-5.670;2022-08-27T18:53:29;8.95;;;2.45;;
73333;SDS011;61561;43.538;-5.670;2022-08-27T18:55:59;6.65;;;2.30;;
73333;SDS011;61561;43.538;-5.670;2022-08-27T18:58:25;7.13;;;2.33;;
73333;SDS011;61561;43.538;-5.670;2022-08-27T19:00:53;7.27;;;2.17;;
73333;SDS011;61561;43.538;-5.670;2022-08-27T19:03:28;7.22;;;2.10;;
73333;SDS011;61561;43.538;-5.670;2022-08-27T19:05:57;6.28;;;1.90;;
73333;SDS011;61561;43.538;-5.670;2022-08-27T19:11:01;7.40;;;1.95;;
73333;SDS011;61561;43.538;-5.670;2022-08-27T19:13:27;6.20;;;2.07;;
73333;SDS011;61561;43.538;-5.670;2022-08-27T19:15:54;7.75;;;2.90;;
73333;SDS011;61561;43.538;-5.670;2022-08-27T19:21:22;7.00;;;1.50;;
73333;SDS011;61561;43.538;-5.670;2022-08-27T19:23:48;6.32;;;1.65;;
73333;SDS011;61561;43.538;-5.670;2022-08-27T19:26:17;5.72;;;1.83;;
73333;SDS011;61561;43.538;-5.670;2022-08-27T19:28:50;7.00;;;1.83;;
73333;SDS011;61561;43.538;-5.670;2022-08-27T19:31:19;5.23;;;1.40;;
73333;SDS011;61561;43.538;-5.670;2022-08-27T19:33:45;8.23;;;1.58;;
73333;SDS011;61561;43.538;-5.670;2022-08-27T19:36:11;5.80;;;1.20;;
73333;SDS011;61561;43.538;-5.670;2022-08-27T19:41:14;6.68;;;1.70;;
73333;SDS011;61561;43.538;-5.670;2022-08-27T19:43:41;5.13;;;1.58;;
73333;SDS011;61561;43.538;-5.670;2022-08-27T19:46:07;6.97;;;1.50;;
73333;SDS011;61561;43.538;-5.670;2022-08-27T19:48:37;6.35;;;1.90;;
73333;SDS011;61561;43.538;-5.670;2022-08-27T19:51:02;9.23;;;1.83;;
73333;SDS011;61561;43.538;-5.670;2022-08-27T20:22:32;9.00;;;3.45;;
73333;SDS011;61561;43.538;-5.670;2022-08-27T20:25:01;8.07;;;3.20;;
73333;SDS011;61561;43.538;-5.670;2022-08-27T20:27:48;6.93;;;3.00;;
73333;SDS011;61561;43.538;-5.670;2022-08-27T20:30:16;7.18;;;2.60;;
73333;SDS011;61561;43.538;-5.670;2022-08-27T20:32:43;8.07;;;2.75;;
73333;SDS011;61561;43.538;-5.670;2022-08-27T20:35:11;7.57;;;2.47;;
73333;SDS011;61561;43.538;-5.670;2022-08-27T20:37:48;8.98;;;2.70;;
73333;SDS011;61561;43.538;-5.670;2022-08-27T20:40:18;6.83;;;2.60;;
73333;SDS011;61561;43.538;-5.670;2022-08-27T20:42:54;7.60;;;2.60;;
73333;SDS011;61561;43.538;-5.670;2022-08-27T20:45:22;5.75;;;1.85;;
73333;SDS011;61561;43.538;-5.670;2022-08-27T20:51:17;5.50;;;1.95;;
73333;SDS011;61561;43.538;-5.670;2022-08-27T20:53:46;8.20;;;2.43;;
73333;SDS011;61561;43.538;-5.670;2022-08-27T20:56:30;5.82;;;2.45;;
73333;SDS011;61561;43.538;-5.670;2022-08-27T21:02:18;10.00;;;2.35;;
73333;SDS011;61561;43.538;-5.670;2022-08-27T21:04:46;7.40;;;2.40;;
73333;SDS011;61561;43.538;-5.670;2022-08-27T21:07:19;9.07;;;2.63;;
73333;SDS011;61561;43.538;-5.670;2022-08-27T21:09:46;7.80;;;1.90;;
73333;SDS011;61561;43.538;-5.670;2022-08-27T21:12:13;6.07;;;2.17;;
73333;SDS011;61561;43.538;-5.670;2022-08-27T21:14:49;7.72;;;1.80;;
73333;SDS011;61561;43.538;-5.670;2022-08-27T21:17:23;6.32;;;2.00;;
73333;SDS011;61561;43.538;-5.670;2022-08-27T21:19:52;6.37;;;2.10;;
73333;SDS011;61561;43.538;-5.670;2022-08-27T21:22:20;6.22;;;2.15;;
73333;SDS011;61561;43.538;-5.670;2022-08-27T21:24:50;5.97;;;2.38;;
73333;SDS011;61561;43.538;-5.670;2022-08-27T21:27:20;5.35;;;1.63;;
73333;SDS011;61561;43.538;-5.670;2022-08-27T21:29:49;5.28;;;2.05;;
73333;SDS011;61561;43.538;-5.670;2022-08-27T21:32:30;6.23;;;2.17;;
73333;SDS011;61561;43.538;-5.670;2022-08-27T21:34:56;5.13;;;1.77;;
73333;SDS011;61561;43.538;-5.670;2022-08-27T21:37:23;6.43;;;2.10;;
73333;SDS011;61561;43.538;-5.670;2022-08-27T21:40:07;6.47;;;1.60;;
73333;SDS011;61561;43.538;-5.670;2022-08-27T21:42:35;7.10;;;1.88;;
73333;SDS011;61561;43.538;-5.670;2022-08-27T21:45:10;6.63;;;1.73;;
73333;SDS011;61561;43.538;-5.670;2022-08-27T21:47:40;6.03;;;1.38;;
73333;SDS011;61561;43.538;-5.670;2022-08-27T21:50:06;5.57;;;1.50;;
73333;SDS011;61561;43.538;-5.670;2022-08-27T21:52:41;5.97;;;1.60;;
73333;SDS011;61561;43.538;-5.670;2022-08-27T21:55:08;8.73;;;2.10;;
73333;SDS011;61561;43.538;-5.670;2022-08-27T21:57:40;4.70;;;1.50;;
73333;SDS011;61561;43.538;-5.670;2022-08-27T22:00:13;5.97;;;1.70;;
73333;SDS011;61561;43.538;-5.670;2022-08-27T23:13:11;5.90;;;1.10;;
73333;SDS011;61561;43.538;-5.670;2022-08-27T23:15:37;5.00;;;0.90;;
73333;SDS011;61561;43.538;-5.670;2022-08-27T23:18:03;5.00;;;0.95;;
73333;SDS011;61561;43.538;-5.670;2022-08-27T23:20:29;5.33;;;0.90;;
73333;SDS011;61561;43.538;-5.670;2022-08-27T23:22:57;6.18;;;0.98;;
73333;SDS011;61561;43.538;-5.670;2022-08-27T23:25:24;6.07;;;1.17;;
73333;SDS011;61561;43.538;-5.670;2022-08-27T23:28:09;4.20;;;0.60;;
73333;SDS011;61561;43.538;-5.670;2022-08-27T23:30:36;4.88;;;0.55;;
73333;SDS011;61561;43.538;-5.670;2022-08-27T23:33:02;6.33;;;0.60;;
73333;SDS011;61561;43.538;-5.670;2022-08-27T23:35:35;5.38;;;0.82;;
73333;SDS011;61561;43.538;-5.670;2022-08-27T23:38:01;4.80;;;0.80;;
73333;SDS011;61561;43.538;-5.670;2022-08-27T23:40:26;5.93;;;0.65;;
73333;SDS011;61561;43.538;-5.670;2022-08-27T23:42:52;11.37;;;1.10;;
73333;SDS011;61561;43.538;-5.670;2022-08-27T23:45:24;3.95;;;0.43;;
73333;SDS011;61561;43.538;-5.670;2022-08-27T23:58:15;5.70;;;0.65;;
